Find Your NWS Forecast:
  Current Conditions
68.1°F  Colder 1.8°F than last hour.
Feels like 68°F
Comfy
 
High Today of: 76.2°F @ 00:00
Low Today of: 68.1°F @ 04:49

Humidity: 69 % Increased 1.0% since last hour.
Dew Point: 57.5°F Decreased 1.2°F since last hour.
Barometer: 29.856 inHg  
Wind:  SE @ 0.0
Gusting to: 1.0 mph
 
Rain Today: 0.00 in
Rain Yesterday: 0.00 in
This Month: 0.00 in
73 Days without rain
 
Solar: 0 W/m2
UV: 0.0    None 
 
  Sun / Moon
Sunrise: 6:29am
Sunset: 7:53pm
Moonrise: 8:29am
Moonset: 9:12pm
 
  California Extremes
High
107°F at Palm Springs Rgnl, CA
107°F at Thermal, CA
Low
41°F at Mammoth/June Lakes, CA
Precip
0.01in at Needles Airport, CA
 
 

Nearby METAR Reports - Updated every 30 to 60 minutes

KMYV - Marysville, California, USA
Distance from station: SE 4mi, 6km
Updated: Wed, 23-Aug-2017 3:53am PDT
Clear
Clear
 Wind from SW
Wind: SW 3 mph , 6 km/h
Temperature: 66°F , 19°C
Dew Point: 57°F , 14°C
Humidity: 73%
Barometer: 29.92 inHg , 1013.2 hPa
Clouds: Clear
Visibility: 10 miles , 16 km
2017/08/23 10:53 KMYV 231053Z AUTO 22003KT 10SM CLR 19/14 A2992 RMK AO2 SLP133 T01940139
KOVE - Oroville, California, USA
Distance from station: 0 25mi, 40km
Updated: Wed, 23-Aug-2017 3:53am PDT
Clear
Clear
 Wind from S
Wind: S 5 mph , 7 km/h
Temperature: 73°F , 23°C
Dew Point: 59°F , 15°C
Humidity: 61%
Barometer: 29.93 inHg , 1013.5 hPa
Clouds: Clear
Visibility: 10 miles , 16 km
2017/08/23 10:53 KOVE 231053Z AUTO 18004KT 10SM CLR 23/15 A2993 RMK AO2 SLP135 T02280150
 
KSMF - Sacramento/Metro, California, USA
Distance from station: S 30mi, 49km
Updated: Wed, 23-Aug-2017 3:53am PDT
Few Clouds
Few Clouds
 Wind from S
Wind: S 7 mph , 11 km/h
Temperature: 64°F , 18°C
Dew Point: 57°F , 14°C
Humidity: 78%
Barometer: 29.91 inHg , 1012.9 hPa
Clouds: Few Clouds
Visibility: 10 miles , 16 km
Cloud details: Few Clouds 25000 ft
2017/08/23 10:53 KSMF 231053Z 18006KT 10SM FEW250 18/14 A2991 RMK AO2 SLP126 T01830139
KAUN - Auburn Muni, California, USA
Distance from station: ESE 32mi, 51km
Updated: Wed, 23-Aug-2017 4:35am PDT
Clear
Clear
 Wind from E
Wind: E 6 mph , 9 km/h
Temperature: 73°F , 23°C
Dew Point: 73°F , 23°C
Humidity: 100%
Barometer: 29.97 inHg , 1014.9 hPa
Clouds: Clear
Visibility: 10 miles , 16 km
2017/08/23 11:35 KAUN 231135Z AUTO 10005KT 10SM CLR 23/23 A2997 RMK AO1
 
KGOO - Grass Valley, California, USA
Distance from station: E 33mi, 54km
Updated: Fri, 05-May-2017 6:55am PDT
NOT Current
Clear
Clear
 Wind from SE
Wind: SE 3 mph , 6 km/h
Temperature: 59°F , 15°C
Dew Point: 46°F , 8°C
Humidity: 63%
Barometer: 29.93 inHg , 1013.5 hPa
Clouds: Clear
Visibility: 10 miles , 16 km
2017/05/05 13:55 KGOO 051355Z AUTO 14003KT 10SM CLR 15/08 A2993 RMK AO1
KEDU - Davis, California, USA
Distance from station: SSW 43mi, 69km
Updated: Wed, 23-Aug-2017 4:35am PDT
Clear
Clear
 Wind from calm
Wind: Calm
Temperature: 61°F , 16°C
Dew Point: 55°F , 13°C
Humidity: 83%
Barometer: 29.91 inHg , 1012.9 hPa
Clouds: Clear
Visibility: 10 miles , 16 km
2017/08/23 11:35 KEDU 231135Z AUTO 00000KT 10SM CLR 16/13 A2991 RMK AO1